• Join FlightAware (Why Join?)
  • Login
  • US Flag 
09:33PM EST


 

Airport Tracker/Info


-or-


 

Live Flight TrackerFlight Track Log ✈ XOJ552 ✈ 30-Jan-2014 ✈ KGSO - 07FA

Flight Track Log - Related Links

Times and Time Zones

All times are in EST time to prevent confusion due to time zone crossing. See the XOJ552 flight status page for this flight to view local times or setup timezone preferences in your user account.

Time Position Orientation Groundspeed Altitude Reporting Facility
EST Latitude Longitude Course Direction KTS MPH feet Rate Location/Type
08:56AM 36.0525 -79.9447 202° Southwest 206 237 4,100  Level Atlanta Center
08:58AM 35.9253 -80.0103 203° Southwest 234 269 13,300 4,080 Climbing Atlanta Center
08:59AM 35.8517 -80.0522 205° Southwest 279 321 16,500 2,700 Climbing Atlanta Center
09:00AM 35.7717 -80.0972 205° Southwest 319 367 18,700 2,820 Climbing Atlanta Center
09:01AM 35.6858 -80.1447 204° Southwest 339 390 22,200 3,000 Climbing Atlanta Center
09:02AM 35.5380 -80.2144 202° Southwest  Level FlightAware Approximate
09:02AM 35.5953 -80.1925 203° Southwest 344 396 24,700  Level Atlanta Center
09:03AM 35.5031 -80.2378 202° Southwest 351 404 26,900 1,920 Climbing Atlanta Center
09:04AM 35.4011 -80.2500 186° South 357 411 28,600 840 Climbing Atlanta Center
09:05AM 35.2928 -80.2600 184° South 376 433 28,600 60 Level Atlanta Center
09:06AM 35.1889 -80.2700 184° South 381 438 28,800 1,440 Climbing Atlanta Center
09:08AM 34.9906 -80.3006 187° South 384 442 32,900 2,040 Climbing Jacksonville Center
09:09AM 34.8972 -80.3286 194° South 359 413 34,900 1,920 Climbing Jacksonville Center
09:10AM 34.8103 -80.3592 196° South 343 395 36,800 1,440 Climbing Jacksonville Center
09:11AM 34.7253 -80.3842 194° South 325 374 37,800 720 Climbing Jacksonville Center
09:12AM 34.6319 -80.4172 196° South 337 388 38,300 720 Climbing Jacksonville Center
09:13AM 34.5367 -80.4503 196° South 351 404 39,300 960 Climbing Jacksonville Center
09:14AM 34.4392 -80.4781 193° South 356 410 40,300 960 Climbing Jacksonville Center
09:15AM 34.3458 -80.5108 196° South 356 410 41,300 840 Climbing Jacksonville Center
09:16AM 34.2528 -80.5411 195° South 356 410 42,000 600 Climbing Jacksonville Center
09:17AM 34.1592 -80.5686 194° South 356 410 42,500 300 Climbing Jacksonville Center
09:18AM 34.0619 -80.6014 196° South 356 410 42,600  Climbing Jacksonville Center
09:19AM 33.9622 -80.6342 195° South 361 415 42,600 180 Level Jacksonville Center
09:20AM 33.8625 -80.6642 194° South 366 421 43,000 180 Climbing Jacksonville Center
09:21AM 33.7650 -80.6967 195° South 371 427 43,000  Level Jacksonville Center
09:22AM 33.6633 -80.7292 195° South 371 427 43,000  Level Jacksonville Center
09:23AM 33.5617 -80.7639 196° South 371 427 43,000  Level Jacksonville Center
09:24AM 33.4600 -80.7964 195° South 376 433 43,000  Level Jacksonville Center
09:25AM 33.3603 -80.8261 194° South 376 433 43,000  Level Jacksonville Center
09:26AM 33.2689 -80.8556 195° South 376 433 43,000  Level Jacksonville Center
09:27AM 33.1672 -80.8850 194° South 376 433 43,000  Level Jacksonville Center
09:28AM 33.0656 -80.9172 195° South 376 433 43,000  Level Jacksonville Center
09:29AM 32.9636 -80.9489 195° South 376 433 43,000  Level Jacksonville Center
09:30AM 32.8639 -80.9808 195° South 376 433 43,000  Level Jacksonville Center
09:31AM 32.7642 -81.0103 194° South 376 433 43,000  Level Jacksonville Center
09:32AM 32.6644 -81.0419 195° South 376 433 43,000  Level Jacksonville Center
09:33AM 32.5606 -81.0736 194° South 368 423 43,000  Level Jacksonville Center
09:34AM 32.4628 -81.1050 195° South 368 423 43,000  Level Jacksonville Center
09:35AM 32.3694 -81.1314 193° South 371 427 43,000  Level Jacksonville Center
09:36AM 32.2717 -81.1628 195° South 371 427 43,000  Level Jacksonville Center
09:37AM 32.1739 -81.1942 195° South 371 427 43,000  Level Jacksonville Center
09:38AM 32.0675 -81.1986 182° South 371 427 43,000  Level Jacksonville Center
09:39AM 31.9611 -81.1956 179° South 376 433 43,000  Level Jacksonville Center
09:40AM 31.8439 -81.1903 178° South 389 448 43,000  Level Jacksonville Center
09:41AM 31.7458 -81.1872 178° South 381 438 43,000  Level Jacksonville Center
09:42AM 31.6311 -81.1844 179° South 381 438 43,000  Level Jacksonville Center
09:43AM 31.5328 -81.1814 178° South 386 444 43,000  Level Jacksonville Center
09:44AM 31.4139 -81.1789 179° South 386 444 43,000  Level Jacksonville Center
09:45AM 31.3197 -81.1756 178° South 386 444 43,000  Level Jacksonville Center
09:46AM 31.2153 -81.1703 178° South 386 444 43,000  Level Jacksonville Center
09:47AM 31.1108 -81.1672 179° South 386 444 43,000  Level Jacksonville Center
09:48AM 31.0064 -81.1667 180° South 380 437 43,000  Level Jacksonville Center
09:49AM 30.9000 -81.1614 178° South 380 437 43,000  Level Jacksonville Center
09:50AM 30.7956 -81.1586 179° South 380 437 43,000  Level Jacksonville Center
09:51AM 30.6911 -81.1556 179° South 380 437 43,000  Level Jacksonville Center
09:52AM 30.5844 -81.1528 179° South 380 437 43,000  Level Jacksonville Center
09:53AM 30.4842 -81.1472 177° South 380 437 43,000  Level Jacksonville Center
09:54AM 30.3778 -81.1444 179° South 380 437 43,000  Level Jacksonville Center
09:55AM 30.2753 -81.1417 179° South 380 437 43,000  Level Jacksonville Center
09:56AM 30.1667 -81.1411 180° South 385 443 43,000  Level Jacksonville Center
09:57AM 30.0664 -81.1358 177° South 378 435 43,000  Level Jacksonville Center
09:59AM 29.8744 -81.1283 178° South 378 435 43,000  Level Miami Center
10:00AM 29.7703 -81.1267 179° South 383 441 43,000  Level Miami Center
10:01AM 29.6619 -81.1175 176° South 383 441 43,000  Level Miami Center
10:02AM 29.5525 -81.0894 167° South 388 447 43,000  Level Miami Center
10:03AM 29.4450 -81.0567 165° South 394 453 43,000  Level Miami Center
10:04AM 29.3353 -81.0311 169° South 405 466 43,000  Level Miami Center
10:05AM 29.2233 -81.0006 167° South 411 473 43,000  Level Miami Center
10:06AM 29.1139 -80.9681 165° South 411 473 43,000  Level Miami Center
10:07AM 29.0000 -80.9378 167° South 411 473 43,000  Level Miami Center
10:08AM 28.8925 -80.9053 165° South 411 473 43,000  Level Miami Center
10:09AM 28.7828 -80.8775 167° South 406 467 43,000  Level Miami Center
10:10AM 28.6708 -80.8475 167° South 414 476 43,000 -480 Level Miami Center
10:11AM 28.5569 -80.8153 166° South 417 480 42,100 -960 Descending Miami Center
10:12AM 28.4475 -80.7736 161° South 407 468 41,100 -960 Descending Miami Center
10:13AM 28.3444 -80.7297 159° South 428 493 40,200 -960 Descending Miami Center
10:14AM 28.2286 -80.6881 162° South 440 506 39,200 -1,020 Descending Miami Center
10:15AM 28.1131 -80.6394 160° South 440 506 38,200 -1,020 Descending Miami Center
10:16AM 27.9972 -80.6003 163° South 435 501 37,200 -1,020 Descending Miami Center
10:17AM 27.8772 -80.5589 163° South 440 506 36,200 -1,020 Descending Miami Center
10:18AM 27.7633 -80.5222 164° South 433 498 35,200 -1,440 Descending Miami Center
10:19AM 27.6497 -80.4836 163° South 433 498 33,400 -2,100 Descending Miami Center
10:20AM 27.5361 -80.4356 159° South 433 498 31,100 -2,340 Descending Miami Center
10:21AM 27.4244 -80.3897 160° South 433 498 28,800 -2,280 Descending Miami Center
10:22AM 27.3189 -80.3469 160° South 428 493 26,600 -2,160 Descending Miami Center
10:23AM 27.2156 -80.3086 162° South 408 470 24,500 -1,800 Descending Miami Center
10:24AM 27.1244 -80.2711 160° South 377 434 23,000 -1,440 Descending Miami Center
10:25AM 27.0375 -80.2358 160° South 348 400 21,700 -1,380 Descending Miami Center
10:26AM 26.9528 -80.2031 161° South 335 386 20,300 -1,320 Descending Miami Center
10:27AM 26.8661 -80.1611 157° South 316 364 19,100 -1,200 Descending Miami Center
10:28AM 26.7831 -80.1283 161° South 306 352 17,900 -1,260 Descending Miami Center
10:29AM 26.7003 -80.0958 161° South 320 368 16,600 -1,380 Descending Miami Center
10:30AM 26.6153 -80.0772 169° South 320 368 15,200 -1,500 Descending Miami Center
10:30AM 26.5858 -80.0764 179° South 295 339 14,700 -2,160 Descending Miami Center
10:31AM 26.5214 -80.0631 170° South 295 339 12,800 -2,160 Descending Miami Center
10:32AM 26.4550 -80.0497 170° South 294 338 11,100 -1,680 Descending Miami Center
10:32AM 26.4425 -80.0494 179° South 282 325 11,100 -120 Level Miami Center
10:33AM 26.3822 -80.0361 169° South 289 333 11,000 -120 Descending Miami Center
10:33AM 26.3758 -80.0383 197° South 267 307 11,000 -780 Level Miami Center
10:34AM 26.2989 -80.0247 171° South 274 315 10,200 -480 Descending Miami Center
10:35AM 26.2214 -80.0250 180° South 270 311 10,100 -120 Descending Miami Center
10:36AM 26.1689 -80.0397 194° South 267 307 10,000 -120 Descending Miami Center
10:36AM 26.1458 -80.0461 194° South 270 311 10,000  Level Miami Center
10:37AM 26.0953 -80.0656 199° South 267 307 10,000  Level Miami Center
10:37AM 26.0719 -80.0789 207° Southwest 276 318 10,000 -180 Level Miami Center
10:38AM 26.0025 -80.1117 203° Southwest 269 310 9,800 -1,080 Descending Miami Center
10:39AM 25.9331 -80.1258 190° South 269 310 7,800 -1,560 Descending Miami Center
10:40AM 25.8853 -80.1200 174° South 269 310 7,000 -840 Descending Miami Center
10:40AM 25.8642 -80.1286 200° South 235 270 7,000  Level Miami Center
10:41AM 25.7992 -80.1383 188° South 248 285 7,000  Level Miami Center
10:42AM 25.7278 -80.1550 192° South 253 291 7,000 -1,020 Level Miami Center
10:43AM 25.6753 -80.1697 194° South 238 274 5,200 -1,680 Descending Miami Center
10:44AM 25.6081 -80.1839 191° South 226 260 3,900 -1,620 Descending Miami Center
10:45AM 25.5575 -80.1964 193° South 187 215 2,000 -1,200 Descending Miami Center
10:46AM 25.5114 -80.2067 191° South 157 181 1,500 -300 Descending Miami Center
10:47AM 25.4653 -80.2167 191° South 180 207 1,500  Level Miami Center
10:48AM 25.4169 -80.2247 189° South 163 188 1,500  Level Miami Center
10:50AM 25.3167 -80.2667 197° South  Level FlightAware Approximate
10:57AM 25.3254 -80.2748 197° South  Level Estimated
10:58AM 25.3254 -80.2748 197° South  Level Estimated
10:59AM 25.3254 -80.2748 197° South  Level Estimated